Terminal Aerodrome Forecast
Issued by NWS Cleveland, OH

Home | Current Version | Previous Version | Text Only | Print | Product List | Glossary Off
Versions: 1 2 3 4 5 6 7 8 9 10 11 12 13 14 15 16

000
FTUS41 KCLE 160500
TAFERI
TAF
KERI 160520Z 1606/1706 32010KT P6SM SCT045
     FM161400 22004KT P6SM SCT050
     FM161800 04012KT P6SM SCT250
     FM170200 10006KT P6SM BKN250=

USA.gov is the U.S. government's official web portal to all federal, state and local government web resources and services.